createdAt,value
2022-12-31T00:01:13.053Z,98847.88
2022-12-31T00:03:40.156Z,98861.72
2022-12-31T00:06:19.995Z,98856.66
2022-12-31T00:08:47.356Z,98854.78
2022-12-31T00:11:14.398Z,98859.09
2022-12-31T00:13:41.176Z,98852.22
2022-12-31T00:16:14.101Z,98867.06
2022-12-31T00:18:44.114Z,98863.63
2022-12-31T00:21:10.812Z,98880.84
2022-12-31T00:23:37.359Z,98882.53
2022-12-31T00:26:12.415Z,98888.63
2022-12-31T00:28:39.627Z,98891.13
2022-12-31T00:31:10.416Z,98905.06
2022-12-31T00:33:37.243Z,98895.66
2022-12-31T00:36:14.753Z,98891.56
2022-12-31T00:38:42.980Z,98890.69
2022-12-31T00:41:09.404Z,98903.59
2022-12-31T00:43:36.424Z,98903.69
2022-12-31T00:46:03.793Z,98933.84
2022-12-31T00:48:30.699Z,98921.09
2022-12-31T00:50:57.896Z,98921.09
2022-12-31T00:53:24.533Z,98934.09
2022-12-31T00:55:51.060Z,98907.63
2022-12-31T00:58:17.476Z,98914.63
2022-12-31T01:00:43.961Z,98923.41
2022-12-31T01:03:10.419Z,98928.66
2022-12-31T01:05:38.002Z,98929.44
2022-12-31T01:08:05.499Z,98934.59
2022-12-31T01:10:50.318Z,98935.44
2022-12-31T01:13:16.783Z,98939.88
2022-12-31T01:15:43.232Z,98943.25
2022-12-31T01:18:09.973Z,98937.25
2022-12-31T01:20:39.012Z,98942.50
2022-12-31T01:23:06.064Z,98953.72
2022-12-31T01:25:36.349Z,98962.25
2022-12-31T01:28:03.671Z,98957.19
2022-12-31T01:30:30.105Z,98954.59
2022-12-31T01:32:56.637Z,98964.09
2022-12-31T01:35:23.324Z,98964.81
2022-12-31T01:37:49.823Z,98974.41
2022-12-31T01:40:16.376Z,98982.94
2022-12-31T01:42:42.772Z,98982.78
2022-12-31T01:45:13.483Z,98981.09
2022-12-31T01:47:43.768Z,98974.94
2022-12-31T01:50:17.706Z,98990.31
2022-12-31T01:52:48.488Z,98994.47
2022-12-31T01:55:41.843Z,98999.63
2022-12-31T01:58:12.638Z,98999.72
2022-12-31T02:00:39.079Z,98986.75
2022-12-31T02:03:08.248Z,98988.41
2022-12-31T02:06:00.760Z,98989.31
2022-12-31T02:08:27.184Z,98993.44
2022-12-31T02:10:53.579Z,98986.44
2022-12-31T02:13:20.137Z,98996.03
2022-12-31T02:16:05.011Z,98995.91
2022-12-31T02:18:49.946Z,98996.75
2022-12-31T02:21:19.826Z,98989.91
2022-12-31T02:24:02.503Z,98990.75
2022-12-31T02:26:56.926Z,98996.94
2022-12-31T02:29:54.318Z,99000.34
2022-12-31T02:32:42.450Z,98995.19
2022-12-31T02:35:10.923Z,99000.44
2022-12-31T02:37:38.885Z,98996.22
2022-12-31T02:40:08.371Z,98994.44
2022-12-31T02:42:34.793Z,98986.75
2022-12-31T02:45:01.240Z,98993.66
2022-12-31T02:47:46.073Z,98997.94
2022-12-31T02:50:25.945Z,98990.28
2022-12-31T02:52:55.262Z,99005.81
2022-12-31T02:55:48.301Z,98998.09
2022-12-31T02:59:00.025Z,99006.72
2022-12-31T03:01:49.565Z,98986.94
2022-12-31T03:04:37.384Z,99000.69
2022-12-31T03:07:06.543Z,99002.41
2022-12-31T03:09:34.322Z,99010.22
2022-12-31T03:12:20.063Z,99008.50
2022-12-31T03:14:46.685Z,99010.31
2022-12-31T03:17:13.278Z,98999.81
2022-12-31T03:19:58.612Z,99011.28
2022-12-31T03:22:28.148Z,99010.47
2022-12-31T03:25:26.860Z,99014.91
2022-12-31T03:27:53.924Z,99024.59
2022-12-31T03:30:22.178Z,99022.94
2022-12-31T03:32:49.229Z,99018.69
2022-12-31T03:35:16.804Z,99016.28
2022-12-31T03:37:43.689Z,99016.47
2022-12-31T03:40:11.529Z,99024.34
2022-12-31T03:42:37.960Z,99027.81
2022-12-31T03:45:05.196Z,99021.13
2022-12-31T03:47:31.934Z,99021.31
2022-12-31T03:49:58.398Z,99026.75
2022-12-31T03:52:24.960Z,99031.91
2022-12-31T03:54:51.388Z,99029.31
2022-12-31T03:57:17.830Z,99024.41
2022-12-31T03:59:44.242Z,99025.41
2022-12-31T04:02:10.976Z,99028.81
2022-12-31T04:04:37.509Z,99040.97
2022-12-31T04:07:03.972Z,99033.34
2022-12-31T04:09:30.393Z,99028.16
2022-12-31T04:11:56.859Z,99022.28
2022-12-31T04:14:23.354Z,99020.34
2022-12-31T04:16:49.932Z,99029.84
2022-12-31T04:19:16.394Z,99024.00
2022-12-31T04:21:42.924Z,99025.13
2022-12-31T04:24:09.410Z,99023.59
2022-12-31T04:26:36.044Z,99035.78
2022-12-31T04:29:02.611Z,99034.09
2022-12-31T04:31:29.070Z,99033.31
2022-12-31T04:33:55.494Z,99032.38
2022-12-31T04:36:21.946Z,99046.00
2022-12-31T04:38:48.387Z,99047.03
2022-12-31T04:41:17.636Z,99053.84
2022-12-31T04:43:45.812Z,99059.09
2022-12-31T04:46:12.844Z,99052.34
2022-12-31T04:48:39.582Z,99054.28
2022-12-31T04:51:06.147Z,99074.22
2022-12-31T04:53:32.682Z,99052.06
2022-12-31T04:55:59.104Z,99049.38
2022-12-31T04:58:25.551Z,99059.69
2022-12-31T05:00:54.431Z,99054.63
2022-12-31T05:03:23.026Z,99054.63
2022-12-31T05:05:50.148Z,99049.53
2022-12-31T05:08:17.832Z,99054.69
2022-12-31T05:10:46.499Z,99053.91
2022-12-31T05:13:13.722Z,99061.97
2022-12-31T05:15:40.775Z,99062.72
2022-12-31T05:18:08.145Z,99064.72
2022-12-31T05:20:34.939Z,99054.22
2022-12-31T05:23:04.677Z,99060.53
2022-12-31T05:25:31.142Z,99066.56
2022-12-31T05:28:00.583Z,99066.34
2022-12-31T05:30:27.353Z,99055.53
2022-12-31T05:32:53.763Z,99063.84
2022-12-31T05:35:20.228Z,99066.41
2022-12-31T05:37:46.689Z,99063.91
2022-12-31T05:40:13.120Z,99058.94
2022-12-31T05:42:39.788Z,99062.44
2022-12-31T05:45:06.776Z,99061.56
2022-12-31T05:47:33.299Z,99064.09
2022-12-31T05:49:59.732Z,99061.50
2022-12-31T05:52:26.649Z,99065.94
2022-12-31T05:54:53.164Z,99069.25
2022-12-31T05:57:19.658Z,99068.59
2022-12-31T05:59:46.089Z,99053.75
2022-12-31T06:02:12.494Z,99061.56
2022-12-31T06:04:38.931Z,99062.28
2022-12-31T06:07:05.393Z,99063.19
2022-12-31T06:09:31.789Z,99072.78
2022-12-31T06:11:58.221Z,99071.03
2022-12-31T06:14:24.669Z,99077.78
2022-12-31T06:16:51.115Z,99078.44
2022-12-31T06:19:17.519Z,99077.66
2022-12-31T06:21:43.938Z,99085.38
2022-12-31T06:24:10.407Z,99090.63
2022-12-31T06:26:36.821Z,99084.56
2022-12-31T06:29:03.386Z,99081.16
2022-12-31T06:31:29.886Z,99091.41
2022-12-31T06:33:56.373Z,99086.34
2022-12-31T06:36:23.001Z,99091.59
2022-12-31T06:38:49.630Z,99098.31
2022-12-31T06:41:18.158Z,99084.41
2022-12-31T06:43:45.134Z,99094.09
2022-12-31T06:46:14.546Z,99089.75
2022-12-31T06:48:43.033Z,99094.03
2022-12-31T06:51:16.795Z,99104.41
2022-12-31T06:53:48.036Z,99096.34
2022-12-31T06:56:19.088Z,99099.19
2022-12-31T06:58:46.205Z,99097.34
2022-12-31T07:01:31.535Z,99100.88
2022-12-31T07:04:07.137Z,99097.34
2022-12-31T07:06:35.675Z,99091.22
2022-12-31T07:09:22.179Z,99113.63
2022-12-31T07:12:02.500Z,99116.09
2022-12-31T07:14:49.964Z,99115.28
2022-12-31T07:17:35.159Z,99116.06
2022-12-31T07:20:07.661Z,99122.94
2022-12-31T07:22:34.366Z,99123.91
2022-12-31T07:25:01.026Z,99118.88
2022-12-31T07:27:42.243Z,99120.44
2022-12-31T07:30:15.104Z,99126.44
2022-12-31T07:32:50.513Z,99136.81
2022-12-31T07:35:39.058Z,99134.28
2022-12-31T07:38:30.254Z,99155.03
2022-12-31T07:41:34.060Z,99158.28
2022-12-31T07:44:28.431Z,99160.81
2022-12-31T07:46:55.650Z,99163.41
2022-12-31T07:49:23.053Z,99158.28
2022-12-31T07:51:49.829Z,99163.53
2022-12-31T07:54:16.239Z,99159.91
2022-12-31T07:56:43.398Z,99174.75
2022-12-31T07:59:19.680Z,99165.31
2022-12-31T08:02:01.245Z,99165.44
2022-12-31T08:04:43.045Z,99171.38
2022-12-31T08:07:18.111Z,99173.94
2022-12-31T08:10:20.136Z,99172.34
2022-12-31T08:12:49.669Z,99176.56
2022-12-31T08:15:18.147Z,99179.94
2022-12-31T08:17:44.726Z,99176.56
2022-12-31T08:20:15.500Z,99176.53
2022-12-31T08:23:00.056Z,99178.25
2022-12-31T08:25:47.752Z,99176.38
2022-12-31T08:28:23.177Z,99177.25
2022-12-31T08:31:17.628Z,99188.38
2022-12-31T08:33:49.583Z,99197.81
2022-12-31T08:36:46.510Z,99195.34
2022-12-31T08:39:12.852Z,99200.63
2022-12-31T08:41:48.317Z,99195.44
2022-12-31T08:44:40.701Z,99191.47
2022-12-31T08:47:25.892Z,99201.09
2022-12-31T08:49:52.701Z,99194.94
2022-12-31T08:52:23.673Z,99193.34
2022-12-31T08:54:50.560Z,99194.97
2022-12-31T08:57:42.427Z,99200.31
2022-12-31T09:00:16.286Z,99201.22
2022-12-31T09:02:54.894Z,99193.53
2022-12-31T09:05:26.737Z,99207.38
2022-12-31T09:08:37.445Z,99204.06
2022-12-31T09:11:22.866Z,99200.44
2022-12-31T09:14:28.135Z,99209.31
2022-12-31T09:17:16.442Z,99198.25
2022-12-31T09:19:42.838Z,99202.78
2022-12-31T09:22:10.683Z,99206.38
2022-12-31T09:24:37.411Z,99209.19
2022-12-31T09:27:28.315Z,99204.22
2022-12-31T09:30:08.466Z,99200.00
2022-12-31T09:32:40.755Z,99205.16
2022-12-31T09:35:30.719Z,99206.22
2022-12-31T09:38:11.836Z,99210.78
2022-12-31T09:40:53.744Z,99219.38
2022-12-31T09:43:39.538Z,99213.16
2022-12-31T09:46:42.802Z,99220.81
2022-12-31T09:49:18.123Z,99221.72
2022-12-31T09:51:51.306Z,99229.53
2022-12-31T09:54:45.172Z,99231.41
2022-12-31T09:57:27.923Z,99235.75
2022-12-31T09:59:58.297Z,99235.09
2022-12-31T10:02:30.855Z,99236.84
2022-12-31T10:05:03.925Z,99238.69
2022-12-31T10:07:52.481Z,99243.94
2022-12-31T10:10:31.042Z,99254.28
2022-12-31T10:13:07.322Z,99253.53
2022-12-31T10:16:11.881Z,99255.81
2022-12-31T10:18:57.366Z,99244.81
2022-12-31T10:21:55.041Z,99250.81
2022-12-31T10:24:39.470Z,99245.72
2022-12-31T10:27:28.384Z,99245.53
2022-12-31T10:30:16.647Z,99245.44
2022-12-31T10:32:43.513Z,99249.91
2022-12-31T10:35:15.895Z,99239.66
2022-12-31T10:37:52.871Z,99240.63
2022-12-31T10:40:30.299Z,99240.63
2022-12-31T10:43:28.986Z,99237.13
2022-12-31T10:46:22.908Z,99237.13
2022-12-31T10:48:57.577Z,99226.88
2022-12-31T10:52:00.178Z,99219.94
2022-12-31T10:54:44.269Z,99201.81
2022-12-31T10:57:36.383Z,99204.34
2022-12-31T11:00:14.921Z,99206.03
2022-12-31T11:03:23.454Z,99209.66
2022-12-31T11:06:31.337Z,99193.34
2022-12-31T11:09:35.659Z,99195.28
2022-12-31T11:12:15.975Z,99203.19
2022-12-31T11:15:00.608Z,99196.38
2022-12-31T11:17:35.980Z,99193.00
2022-12-31T11:20:29.760Z,99201.56
2022-12-31T11:23:30.331Z,99200.00
2022-12-31T11:26:29.330Z,99194.75
2022-12-31T11:29:02.157Z,99205.34
2022-12-31T11:31:46.985Z,99207.13
2022-12-31T11:34:32.004Z,99218.25
2022-12-31T11:37:28.912Z,99209.69
2022-12-31T11:40:08.189Z,99222.56
2022-12-31T11:42:59.747Z,99216.00
2022-12-31T11:45:50.835Z,99215.00
2022-12-31T11:48:31.327Z,99216.88
2022-12-31T11:51:29.702Z,99221.25
2022-12-31T11:54:26.708Z,99230.72
2022-12-31T11:57:12.319Z,99229.03
2022-12-31T11:59:38.791Z,99226.34
2022-12-31T12:02:35.568Z,99209.28
2022-12-31T12:05:10.555Z,99219.56
2022-12-31T12:07:37.695Z,99214.41
2022-12-31T12:10:29.130Z,99212.78
2022-12-31T12:13:12.357Z,99200.78
2022-12-31T12:15:39.449Z,99199.00
2022-12-31T12:18:18.321Z,99198.94
2022-12-31T12:20:46.362Z,99203.28
2022-12-31T12:23:16.476Z,99204.84
2022-12-31T12:25:44.416Z,99206.47
2022-12-31T12:28:23.505Z,99203.00
2022-12-31T12:31:01.943Z,99201.19
2022-12-31T12:33:30.347Z,99191.00
2022-12-31T12:36:11.846Z,99185.91
2022-12-31T12:38:38.556Z,99179.78
2022-12-31T12:41:09.925Z,99164.25
2022-12-31T12:43:37.597Z,99165.13
2022-12-31T12:46:19.296Z,99165.91
2022-12-31T12:48:49.400Z,99175.56
2022-12-31T12:51:21.864Z,99192.03
2022-12-31T12:54:00.584Z,99177.25
2022-12-31T12:56:42.303Z,99174.59
2022-12-31T12:59:27.683Z,99163.31
2022-12-31T13:02:31.414Z,99166.84
2022-12-31T13:04:57.850Z,99177.09
2022-12-31T13:07:55.298Z,99178.78
2022-12-31T13:10:29.753Z,99182.31
2022-12-31T13:13:23.949Z,99165.03
2022-12-31T13:16:07.530Z,99160.72
2022-12-31T13:18:41.305Z,99147.72
2022-12-31T13:21:22.654Z,99146.69
2022-12-31T13:23:55.586Z,99139.91
2022-12-31T13:26:34.093Z,99150.28
2022-12-31T13:29:02.070Z,99138.28
2022-12-31T13:31:36.777Z,99150.38
2022-12-31T13:34:07.388Z,99149.59
2022-12-31T13:36:35.454Z,99145.34
2022-12-31T13:39:03.270Z,99140.13
2022-12-31T13:41:33.250Z,99146.84
2022-12-31T13:44:14.175Z,99142.63
2022-12-31T13:46:58.810Z,99135.69
2022-12-31T13:49:28.736Z,99139.25
2022-12-31T13:52:01.160Z,99157.31
2022-12-31T13:54:42.744Z,99146.16
2022-12-31T13:57:17.642Z,99155.56
2022-12-31T13:59:48.603Z,99151.25
2022-12-31T14:02:30.415Z,99150.38
2022-12-31T14:05:19.244Z,99158.09
2022-12-31T14:07:53.712Z,99152.03
2022-12-31T14:10:31.596Z,99157.19
2022-12-31T14:13:17.190Z,99160.63
2022-12-31T14:16:24.110Z,99150.28
2022-12-31T14:19:01.194Z,99143.38
2022-12-31T14:21:45.986Z,99140.66
2022-12-31T14:24:33.138Z,99147.53
2022-12-31T14:27:02.343Z,99147.53
2022-12-31T14:29:34.774Z,99151.06
2022-12-31T14:32:12.849Z,99164.59
2022-12-31T14:34:56.296Z,99158.53
2022-12-31T14:37:47.679Z,99165.22
2022-12-31T14:40:41.407Z,99163.56
2022-12-31T14:43:49.132Z,99166.84
2022-12-31T14:46:40.185Z,99167.50
2022-12-31T14:49:43.211Z,99170.00
2022-12-31T14:52:15.678Z,99158.81
2022-12-31T14:54:42.435Z,99168.28
2022-12-31T14:57:23.733Z,99181.97
2022-12-31T14:59:56.662Z,99194.06
2022-12-31T15:02:34.366Z,99186.91
2022-12-31T15:05:10.228Z,99182.38
2022-12-31T15:07:41.376Z,99180.75
2022-12-31T15:10:17.744Z,99178.13
2022-12-31T15:12:56.434Z,99169.44
2022-12-31T15:15:41.038Z,99169.38
2022-12-31T15:18:13.391Z,99164.13
2022-12-31T15:20:47.851Z,99172.00
2022-12-31T15:23:21.251Z,99170.03
2022-12-31T15:25:49.483Z,99174.16
2022-12-31T15:28:45.310Z,99167.03
2022-12-31T15:31:19.548Z,99175.59
2022-12-31T15:33:54.819Z,99176.13
2022-12-31T15:36:26.898Z,99180.34
2022-12-31T15:39:10.454Z,99173.63
2022-12-31T15:42:10.409Z,99184.66
2022-12-31T15:44:33.222Z,99190.59
2022-12-31T15:47:03.189Z,99188.84
2022-12-31T15:49:36.981Z,99196.66
2022-12-31T15:52:30.523Z,99193.16
2022-12-31T15:54:57.883Z,99190.66
2022-12-31T15:57:33.453Z,99196.50
2022-12-31T16:00:01.444Z,99202.53
2022-12-31T16:02:28.804Z,99198.91
2022-12-31T16:04:55.640Z,99204.06
2022-12-31T16:07:23.664Z,99201.34
2022-12-31T16:09:55.502Z,99203.03
2022-12-31T16:12:27.860Z,99209.03
2022-12-31T16:14:59.327Z,99214.00
2022-12-31T16:17:35.680Z,99215.53
2022-12-31T16:20:20.902Z,99207.84
2022-12-31T16:22:57.397Z,99211.81
2022-12-31T16:25:33.139Z,99210.31
2022-12-31T16:28:01.928Z,99205.13
2022-12-31T16:30:32.893Z,99214.63
2022-12-31T16:33:02.855Z,99210.28
2022-12-31T16:35:34.482Z,99210.19
2022-12-31T16:38:07.367Z,99205.94
2022-12-31T16:40:34.353Z,99213.59
2022-12-31T16:43:01.053Z,99221.34
2022-12-31T16:45:38.558Z,99226.34
2022-12-31T16:48:16.749Z,99220.41
2022-12-31T16:50:54.967Z,99225.69
2022-12-31T16:53:25.968Z,99222.94
2022-12-31T16:55:56.122Z,99222.06
2022-12-31T16:58:27.144Z,99228.97
2022-12-31T17:00:56.030Z,99213.50
2022-12-31T17:03:24.188Z,99221.25
2022-12-31T17:06:06.338Z,99218.56
2022-12-31T17:08:43.457Z,99223.63
2022-12-31T17:11:24.218Z,99221.88
2022-12-31T17:14:05.596Z,99220.00
2022-12-31T17:16:33.889Z,99213.19
2022-12-31T17:19:00.322Z,99207.91
2022-12-31T17:21:30.569Z,99221.13
2022-12-31T17:24:01.238Z,99226.31
2022-12-31T17:26:29.702Z,99208.84
2022-12-31T17:28:58.072Z,99214.84
2022-12-31T17:31:33.573Z,99220.00
2022-12-31T17:34:22.079Z,99223.56
2022-12-31T17:36:57.743Z,99219.72
2022-12-31T17:39:24.841Z,99218.03
2022-12-31T17:41:52.910Z,99223.41
2022-12-31T17:44:29.069Z,99233.72
2022-12-31T17:46:55.664Z,99240.25
2022-12-31T17:49:27.205Z,99235.19
2022-12-31T17:51:53.733Z,99234.84
2022-12-31T17:54:20.157Z,99234.81
2022-12-31T17:56:47.088Z,99233.06
2022-12-31T17:59:24.422Z,99226.19
2022-12-31T18:01:50.988Z,99226.19
2022-12-31T18:04:18.560Z,99228.72
2022-12-31T18:06:45.336Z,99234.84
2022-12-31T18:09:11.789Z,99232.97
2022-12-31T18:11:38.693Z,99228.84
2022-12-31T18:14:05.123Z,99228.88
2022-12-31T18:16:31.627Z,99225.50
2022-12-31T18:19:00.082Z,99217.78
2022-12-31T18:21:30.329Z,99212.88
2022-12-31T18:26:23.979Z,99219.09
2022-12-31T18:28:50.968Z,99221.66
2022-12-31T18:31:26.118Z,99220.69
2022-12-31T18:33:53.579Z,99223.09
2022-12-31T18:36:21.554Z,99219.59
2022-12-31T18:38:48.355Z,99230.81
2022-12-31T18:41:29.348Z,99234.00
2022-12-31T18:43:56.177Z,99237.59
2022-12-31T18:46:23.947Z,99240.81
2022-12-31T18:48:50.393Z,99237.34
2022-12-31T18:51:20.354Z,99239.31
2022-12-31T18:53:47.022Z,99235.66
2022-12-31T18:56:18.557Z,99234.72
2022-12-31T18:58:45.571Z,99232.19
2022-12-31T19:01:32.811Z,99238.38
2022-12-31T19:04:01.662Z,99243.34
2022-12-31T19:06:29.467Z,99239.22
2022-12-31T19:08:56.354Z,99240.53
2022-12-31T19:11:23.536Z,99245.06
2022-12-31T19:13:50.167Z,99249.78
2022-12-31T19:16:17.871Z,99239.38
2022-12-31T19:18:44.597Z,99257.28
2022-12-31T19:21:22.554Z,99255.16
2022-12-31T19:23:52.443Z,99248.91
2022-12-31T19:26:20.812Z,99250.56
2022-12-31T19:28:48.513Z,99255.00
2022-12-31T19:31:15.657Z,99249.13
2022-12-31T19:33:42.678Z,99250.97
2022-12-31T19:36:16.898Z,99251.56
2022-12-31T19:38:43.962Z,99244.81
2022-12-31T19:41:16.029Z,99260.41
2022-12-31T19:43:42.497Z,99254.59
2022-12-31T19:46:16.302Z,99242.50
2022-12-31T19:48:43.389Z,99246.69
2022-12-31T19:51:11.943Z,99254.28
2022-12-31T19:53:38.772Z,99259.66
2022-12-31T19:56:05.637Z,99253.56
2022-12-31T19:58:32.089Z,99252.53
2022-12-31T20:01:02.846Z,99250.63
2022-12-31T20:03:30.082Z,99250.69
2022-12-31T20:06:08.448Z,99249.91
2022-12-31T20:08:36.561Z,99255.84
2022-12-31T20:11:12.943Z,99250.50
2022-12-31T20:13:42.894Z,99257.38
2022-12-31T20:16:13.312Z,99264.41
2022-12-31T20:18:40.801Z,99258.88
2022-12-31T20:21:13.186Z,99263.25
2022-12-31T20:23:39.919Z,99260.66
2022-12-31T20:26:06.451Z,99257.56
2022-12-31T20:28:32.917Z,99255.66
2022-12-31T20:30:59.495Z,99258.84
2022-12-31T20:33:25.949Z,99264.19
2022-12-31T20:35:52.809Z,99266.81
2022-12-31T20:38:22.644Z,99262.44
2022-12-31T20:40:49.183Z,99269.56
2022-12-31T20:43:15.590Z,99260.03
2022-12-31T20:45:42.114Z,99270.16
2022-12-31T20:48:08.586Z,99265.72
2022-12-31T20:50:35.221Z,99276.91
2022-12-31T20:53:02.026Z,99276.72
2022-12-31T20:55:30.610Z,99284.47
2022-12-31T20:57:57.042Z,99293.59
2022-12-31T21:00:23.507Z,99293.69
2022-12-31T21:03:00.226Z,99288.38
2022-12-31T21:05:30.659Z,99292.72
2022-12-31T21:07:57.244Z,99294.41
2022-12-31T21:10:23.883Z,99297.75
2022-12-31T21:12:53.328Z,99306.38
2022-12-31T21:15:21.132Z,99309.69
2022-12-31T21:17:47.575Z,99308.69
2022-12-31T21:20:14.240Z,99307.00
2022-12-31T21:22:40.669Z,99313.06
2022-12-31T21:25:07.491Z,99320.47
2022-12-31T21:27:35.497Z,99322.81
2022-12-31T21:30:18.180Z,99320.81
2022-12-31T21:32:45.484Z,99328.69
2022-12-31T21:35:42.246Z,99334.56
2022-12-31T21:38:06.146Z,99329.34
2022-12-31T21:40:32.864Z,99324.84
2022-12-31T21:42:59.464Z,99318.72
2022-12-31T21:45:26.003Z,99323.88
2022-12-31T21:48:11.072Z,99339.13
2022-12-31T21:50:37.517Z,99339.13
2022-12-31T21:53:03.953Z,99328.59
2022-12-31T21:55:48.901Z,99338.19
2022-12-31T21:58:25.853Z,99336.31
2022-12-31T22:01:11.949Z,99350.13
2022-12-31T22:03:38.590Z,99345.50
2022-12-31T22:06:16.096Z,99346.38
2022-12-31T22:08:44.650Z,99345.28
2022-12-31T22:11:11.815Z,99340.03
2022-12-31T22:13:39.082Z,99341.78
2022-12-31T22:16:06.401Z,99343.69
2022-12-31T22:18:35.227Z,99336.06
2022-12-31T22:21:24.515Z,99342.78
2022-12-31T22:23:52.556Z,99346.00
2022-12-31T22:26:21.278Z,99339.00
2022-12-31T22:28:47.983Z,99340.78
2022-12-31T22:31:16.622Z,99337.38
2022-12-31T22:33:43.942Z,99340.84
2022-12-31T22:36:12.591Z,99345.19
2022-12-31T22:38:39.052Z,99343.19
2022-12-31T22:41:06.605Z,99345.75
2022-12-31T22:43:34.135Z,99353.50
2022-12-31T22:46:06.432Z,99355.75
2022-12-31T22:48:32.947Z,99358.53
2022-12-31T22:50:59.393Z,99361.78
2022-12-31T22:53:25.858Z,99371.09
2022-12-31T22:55:54.702Z,99365.13
2022-12-31T22:58:22.265Z,99369.75
2022-12-31T23:00:50.172Z,99367.03
2022-12-31T23:03:16.876Z,99367.06
2022-12-31T23:05:43.968Z,99364.44
2022-12-31T23:08:20.557Z,99364.44
2022-12-31T23:10:59.803Z,99368.94
2022-12-31T23:13:50.682Z,99366.94
2022-12-31T23:16:36.387Z,99378.13
2022-12-31T23:19:24.453Z,99380.28
2022-12-31T23:22:09.803Z,99377.94
2022-12-31T23:24:36.262Z,99373.47
2022-12-31T23:27:02.969Z,99375.81
2022-12-31T23:29:29.481Z,99374.31
2022-12-31T23:31:55.939Z,99377.69
2022-12-31T23:34:22.591Z,99373.00
2022-12-31T23:36:49.057Z,99380.72
2022-12-31T23:39:15.441Z,99383.41
2022-12-31T23:41:41.820Z,99384.50
2022-12-31T23:44:08.338Z,99388.69
2022-12-31T23:46:34.779Z,99381.81
2022-12-31T23:49:01.177Z,99393.16
2022-12-31T23:51:27.584Z,99384.94
2022-12-31T23:53:56.020Z,99397.09
2022-12-31T23:56:28.413Z,99395.16
2022-12-31T23:58:55.936Z,99390.03
